sensor_id;sensor_type;location;lat;lon;timestamp;P1;durP1;ratioP1;P2;durP2;ratioP2
12760;SDS011;6444;49.742;6.114;2023-09-19T00:02:21;9.00;;;5.32;;
12760;SDS011;6444;49.742;6.114;2023-09-19T00:04:48;8.98;;;4.50;;
12760;SDS011;6444;49.742;6.114;2023-09-19T00:07:14;9.18;;;5.12;;
12760;SDS011;6444;49.742;6.114;2023-09-19T00:09:41;7.72;;;4.85;;
12760;SDS011;6444;49.742;6.114;2023-09-19T00:12:07;8.65;;;5.53;;
12760;SDS011;6444;49.742;6.114;2023-09-19T00:14:34;8.55;;;6.28;;
12760;SDS011;6444;49.742;6.114;2023-09-19T00:17:01;7.07;;;6.00;;
12760;SDS011;6444;49.742;6.114;2023-09-19T00:19:27;9.93;;;5.57;;
12760;SDS011;6444;49.742;6.114;2023-09-19T00:21:54;7.10;;;4.68;;
12760;SDS011;6444;49.742;6.114;2023-09-19T00:24:21;8.45;;;4.70;;
12760;SDS011;6444;49.742;6.114;2023-09-19T00:26:47;6.15;;;4.53;;
12760;SDS011;6444;49.742;6.114;2023-09-19T00:29:14;8.23;;;4.85;;
12760;SDS011;6444;49.742;6.114;2023-09-19T00:31:40;7.78;;;4.80;;
12760;SDS011;6444;49.742;6.114;2023-09-19T00:34:07;8.20;;;4.87;;
12760;SDS011;6444;49.742;6.114;2023-09-19T00:36:34;9.52;;;5.10;;
12760;SDS011;6444;49.742;6.114;2023-09-19T00:39:00;7.82;;;4.72;;
12760;SDS011;6444;49.742;6.114;2023-09-19T00:41:27;9.65;;;5.55;;
12760;SDS011;6444;49.742;6.114;2023-09-19T00:43:54;9.50;;;5.60;;
12760;SDS011;6444;49.742;6.114;2023-09-19T00:46:20;8.90;;;5.57;;
12760;SDS011;6444;49.742;6.114;2023-09-19T00:48:47;9.00;;;4.72;;
12760;SDS011;6444;49.742;6.114;2023-09-19T00:51:14;7.30;;;4.72;;
12760;SDS011;6444;49.742;6.114;2023-09-19T00:53:40;10.73;;;4.32;;
12760;SDS011;6444;49.742;6.114;2023-09-19T00:56:07;6.72;;;4.68;;
12760;SDS011;6444;49.742;6.114;2023-09-19T00:58:34;8.75;;;4.85;;
12760;SDS011;6444;49.742;6.114;2023-09-19T01:01:00;10.95;;;4.15;;
12760;SDS011;6444;49.742;6.114;2023-09-19T01:03:27;8.18;;;4.97;;
12760;SDS011;6444;49.742;6.114;2023-09-19T01:05:53;6.37;;;5.28;;
12760;SDS011;6444;49.742;6.114;2023-09-19T01:08:20;9.82;;;4.50;;
12760;SDS011;6444;49.742;6.114;2023-09-19T01:10:54;8.70;;;4.95;;
12760;SDS011;6444;49.742;6.114;2023-09-19T01:16:25;8.25;;;5.30;;
12760;SDS011;6444;49.742;6.114;2023-09-19T01:32:05;7.70;;;5.45;;
12760;SDS011;6444;49.742;6.114;2023-09-19T01:37:16;8.00;;;4.53;;
12760;SDS011;6444;49.742;6.114;2023-09-19T01:39:43;9.68;;;4.78;;
12760;SDS011;6444;49.742;6.114;2023-09-19T01:42:12;11.65;;;4.70;;
12760;SDS011;6444;49.742;6.114;2023-09-19T01:47:26;9.27;;;4.60;;
12760;SDS011;6444;49.742;6.114;2023-09-19T01:49:55;6.60;;;4.30;;
12760;SDS011;6444;49.742;6.114;2023-09-19T01:52:22;5.62;;;4.47;;
12760;SDS011;6444;49.742;6.114;2023-09-19T01:54:50;8.05;;;4.35;;
12760;SDS011;6444;49.742;6.114;2023-09-19T01:57:16;8.82;;;4.65;;
12760;SDS011;6444;49.742;6.114;2023-09-19T02:00:01;8.65;;;4.82;;
12760;SDS011;6444;49.742;6.114;2023-09-19T02:02:26;9.00;;;3.85;;
12760;SDS011;6444;49.742;6.114;2023-09-19T02:04:52;7.60;;;4.60;;
12760;SDS011;6444;49.742;6.114;2023-09-19T02:07:20;8.43;;;4.10;;
12760;SDS011;6444;49.742;6.114;2023-09-19T02:09:46;8.55;;;3.55;;
12760;SDS011;6444;49.742;6.114;2023-09-19T02:12:13;12.32;;;4.32;;
12760;SDS011;6444;49.742;6.114;2023-09-19T02:14:40;8.75;;;4.25;;
12760;SDS011;6444;49.742;6.114;2023-09-19T02:17:06;9.52;;;4.50;;
12760;SDS011;6444;49.742;6.114;2023-09-19T02:19:34;6.22;;;3.80;;
12760;SDS011;6444;49.742;6.114;2023-09-19T02:22:00;6.25;;;3.95;;
12760;SDS011;6444;49.742;6.114;2023-09-19T02:24:30;8.45;;;4.05;;
12760;SDS011;6444;49.742;6.114;2023-09-19T02:26:56;6.70;;;3.37;;
12760;SDS011;6444;49.742;6.114;2023-09-19T02:29:23;10.27;;;3.50;;
12760;SDS011;6444;49.742;6.114;2023-09-19T02:31:49;7.28;;;3.45;;
12760;SDS011;6444;49.742;6.114;2023-09-19T02:34:16;6.72;;;3.40;;
12760;SDS011;6444;49.742;6.114;2023-09-19T02:36:43;5.40;;;3.12;;
12760;SDS011;6444;49.742;6.114;2023-09-19T02:39:09;7.35;;;3.58;;
12760;SDS011;6444;49.742;6.114;2023-09-19T02:41:36;5.60;;;3.10;;
12760;SDS011;6444;49.742;6.114;2023-09-19T02:44:03;6.97;;;3.12;;
12760;SDS011;6444;49.742;6.114;2023-09-19T02:46:29;7.57;;;2.90;;
12760;SDS011;6444;49.742;6.114;2023-09-19T02:48:56;9.00;;;3.35;;
12760;SDS011;6444;49.742;6.114;2023-09-19T02:51:22;5.80;;;3.00;;
12760;SDS011;6444;49.742;6.114;2023-09-19T02:53:50;7.12;;;3.22;;
12760;SDS011;6444;49.742;6.114;2023-09-19T02:56:16;7.78;;;3.58;;
12760;SDS011;6444;49.742;6.114;2023-09-19T02:58:42;6.00;;;3.10;;
12760;SDS011;6444;49.742;6.114;2023-09-19T03:01:09;5.95;;;3.20;;
12760;SDS011;6444;49.742;6.114;2023-09-19T03:03:36;7.72;;;3.15;;
12760;SDS011;6444;49.742;6.114;2023-09-19T03:06:02;9.80;;;3.97;;
12760;SDS011;6444;49.742;6.114;2023-09-19T03:08:29;7.80;;;2.70;;
12760;SDS011;6444;49.742;6.114;2023-09-19T03:10:55;5.50;;;2.90;;
12760;SDS011;6444;49.742;6.114;2023-09-19T03:13:22;4.90;;;2.90;;
12760;SDS011;6444;49.742;6.114;2023-09-19T03:15:49;13.77;;;3.58;;
12760;SDS011;6444;49.742;6.114;2023-09-19T03:18:15;8.77;;;3.62;;
12760;SDS011;6444;49.742;6.114;2023-09-19T03:20:42;10.18;;;4.43;;
12760;SDS011;6444;49.742;6.114;2023-09-19T03:23:09;7.25;;;3.10;;
12760;SDS011;6444;49.742;6.114;2023-09-19T03:25:35;5.57;;;3.05;;
12760;SDS011;6444;49.742;6.114;2023-09-19T03:28:03;7.22;;;3.20;;
12760;SDS011;6444;49.742;6.114;2023-09-19T03:30:29;8.77;;;3.53;;
12760;SDS011;6444;49.742;6.114;2023-09-19T03:32:56;7.43;;;3.30;;
12760;SDS011;6444;49.742;6.114;2023-09-19T03:35:23;8.15;;;3.60;;
12760;SDS011;6444;49.742;6.114;2023-09-19T03:37:50;6.25;;;3.33;;
12760;SDS011;6444;49.742;6.114;2023-09-19T03:40:17;7.15;;;3.03;;
12760;SDS011;6444;49.742;6.114;2023-09-19T03:42:43;8.52;;;3.53;;
12760;SDS011;6444;49.742;6.114;2023-09-19T03:45:10;6.75;;;3.58;;
12760;SDS011;6444;49.742;6.114;2023-09-19T03:47:39;4.47;;;3.10;;
12760;SDS011;6444;49.742;6.114;2023-09-19T03:50:06;8.27;;;3.70;;
12760;SDS011;6444;49.742;6.114;2023-09-19T03:52:32;7.62;;;3.42;;
12760;SDS011;6444;49.742;6.114;2023-09-19T03:54:59;12.63;;;4.87;;
12760;SDS011;6444;49.742;6.114;2023-09-19T03:57:25;11.32;;;4.20;;
12760;SDS011;6444;49.742;6.114;2023-09-19T03:59:53;8.73;;;3.75;;
12760;SDS011;6444;49.742;6.114;2023-09-19T04:02:20;7.28;;;3.25;;
12760;SDS011;6444;49.742;6.114;2023-09-19T04:04:49;8.85;;;3.03;;
12760;SDS011;6444;49.742;6.114;2023-09-19T04:07:16;10.10;;;2.97;;
12760;SDS011;6444;49.742;6.114;2023-09-19T04:09:42;6.35;;;2.80;;
12760;SDS011;6444;49.742;6.114;2023-09-19T04:12:09;6.82;;;2.87;;
12760;SDS011;6444;49.742;6.114;2023-09-19T04:14:36;8.07;;;2.85;;
12760;SDS011;6444;49.742;6.114;2023-09-19T04:17:02;13.98;;;3.22;;
12760;SDS011;6444;49.742;6.114;2023-09-19T04:19:29;8.98;;;3.35;;
12760;SDS011;6444;49.742;6.114;2023-09-19T04:21:55;8.57;;;3.40;;
12760;SDS011;6444;49.742;6.114;2023-09-19T04:24:22;6.35;;;2.75;;
12760;SDS011;6444;49.742;6.114;2023-09-19T04:26:49;13.88;;;3.65;;
12760;SDS011;6444;49.742;6.114;2023-09-19T04:29:15;7.00;;;2.90;;
12760;SDS011;6444;49.742;6.114;2023-09-19T04:31:42;8.32;;;5.10;;
12760;SDS011;6444;49.742;6.114;2023-09-19T04:34:09;9.70;;;4.10;;
12760;SDS011;6444;49.742;6.114;2023-09-19T04:36:35;9.85;;;4.20;;
12760;SDS011;6444;49.742;6.114;2023-09-19T04:39:02;8.75;;;3.72;;
12760;SDS011;6444;49.742;6.114;2023-09-19T04:41:28;12.43;;;3.50;;
12760;SDS011;6444;49.742;6.114;2023-09-19T04:43:55;8.00;;;3.60;;
12760;SDS011;6444;49.742;6.114;2023-09-19T04:46:22;9.02;;;3.50;;
12760;SDS011;6444;49.742;6.114;2023-09-19T04:48:50;9.85;;;3.15;;
12760;SDS011;6444;49.742;6.114;2023-09-19T04:51:16;8.02;;;3.30;;
12760;SDS011;6444;49.742;6.114;2023-09-19T04:53:43;8.80;;;2.80;;
12760;SDS011;6444;49.742;6.114;2023-09-19T04:56:09;7.80;;;3.10;;
12760;SDS011;6444;49.742;6.114;2023-09-19T04:58:36;11.10;;;3.62;;
12760;SDS011;6444;49.742;6.114;2023-09-19T05:01:03;10.63;;;3.10;;
12760;SDS011;6444;49.742;6.114;2023-09-19T05:03:30;8.68;;;3.50;;
12760;SDS011;6444;49.742;6.114;2023-09-19T05:05:57;10.02;;;3.22;;
12760;SDS011;6444;49.742;6.114;2023-09-19T05:08:23;12.07;;;4.18;;
12760;SDS011;6444;49.742;6.114;2023-09-19T05:10:50;13.32;;;6.30;;
12760;SDS011;6444;49.742;6.114;2023-09-19T05:13:17;11.93;;;5.00;;
12760;SDS011;6444;49.742;6.114;2023-09-19T05:15:43;13.40;;;4.35;;
12760;SDS011;6444;49.742;6.114;2023-09-19T05:18:10;13.52;;;3.90;;
12760;SDS011;6444;49.742;6.114;2023-09-19T05:20:37;8.30;;;3.50;;
12760;SDS011;6444;49.742;6.114;2023-09-19T05:23:04;16.75;;;4.28;;
12760;SDS011;6444;49.742;6.114;2023-09-19T05:25:33;12.13;;;3.97;;
12760;SDS011;6444;49.742;6.114;2023-09-19T05:28:00;8.52;;;4.07;;
12760;SDS011;6444;49.742;6.114;2023-09-19T05:30:27;9.95;;;3.70;;
12760;SDS011;6444;49.742;6.114;2023-09-19T05:32:53;8.05;;;4.00;;
12760;SDS011;6444;49.742;6.114;2023-09-19T05:35:20;11.48;;;4.72;;
12760;SDS011;6444;49.742;6.114;2023-09-19T05:37:47;13.77;;;6.45;;
12760;SDS011;6444;49.742;6.114;2023-09-19T05:40:14;10.23;;;3.65;;
12760;SDS011;6444;49.742;6.114;2023-09-19T05:42:41;8.40;;;3.30;;
12760;SDS011;6444;49.742;6.114;2023-09-19T05:45:07;8.05;;;3.28;;
12760;SDS011;6444;49.742;6.114;2023-09-19T05:47:34;9.88;;;3.60;;
12760;SDS011;6444;49.742;6.114;2023-09-19T05:50:01;12.73;;;3.80;;
12760;SDS011;6444;49.742;6.114;2023-09-19T05:52:27;11.52;;;3.45;;
12760;SDS011;6444;49.742;6.114;2023-09-19T05:54:54;13.65;;;4.47;;
12760;SDS011;6444;49.742;6.114;2023-09-19T05:57:20;14.43;;;3.70;;
12760;SDS011;6444;49.742;6.114;2023-09-19T05:59:47;12.55;;;3.45;;
12760;SDS011;6444;49.742;6.114;2023-09-19T06:02:14;11.48;;;4.90;;
12760;SDS011;6444;49.742;6.114;2023-09-19T06:04:40;14.73;;;4.70;;
12760;SDS011;6444;49.742;6.114;2023-09-19T06:07:07;10.68;;;4.78;;
12760;SDS011;6444;49.742;6.114;2023-09-19T06:09:34;12.88;;;4.32;;
12760;SDS011;6444;49.742;6.114;2023-09-19T06:12:01;11.00;;;3.65;;
12760;SDS011;6444;49.742;6.114;2023-09-19T06:14:28;6.78;;;2.78;;
12760;SDS011;6444;49.742;6.114;2023-09-19T06:16:54;8.95;;;3.40;;
12760;SDS011;6444;49.742;6.114;2023-09-19T06:19:21;10.30;;;3.00;;
12760;SDS011;6444;49.742;6.114;2023-09-19T06:21:48;13.30;;;3.30;;
12760;SDS011;6444;49.742;6.114;2023-09-19T06:24:15;9.70;;;2.90;;
12760;SDS011;6444;49.742;6.114;2023-09-19T06:26:42;11.12;;;3.05;;
12760;SDS011;6444;49.742;6.114;2023-09-19T06:29:08;12.05;;;3.08;;
12760;SDS011;6444;49.742;6.114;2023-09-19T06:31:35;9.02;;;3.12;;
12760;SDS011;6444;49.742;6.114;2023-09-19T06:34:02;7.95;;;3.22;;
12760;SDS011;6444;49.742;6.114;2023-09-19T06:36:29;12.52;;;3.65;;
12760;SDS011;6444;49.742;6.114;2023-09-19T06:38:55;9.52;;;3.00;;
12760;SDS011;6444;49.742;6.114;2023-09-19T06:41:22;9.77;;;3.00;;
12760;SDS011;6444;49.742;6.114;2023-09-19T06:43:49;13.10;;;3.78;;
12760;SDS011;6444;49.742;6.114;2023-09-19T06:46:15;7.85;;;3.45;;
12760;SDS011;6444;49.742;6.114;2023-09-19T06:48:42;12.48;;;3.60;;
12760;SDS011;6444;49.742;6.114;2023-09-19T06:51:09;12.70;;;3.45;;
12760;SDS011;6444;49.742;6.114;2023-09-19T06:53:35;11.40;;;4.37;;
12760;SDS011;6444;49.742;6.114;2023-09-19T06:56:02;11.57;;;4.20;;
12760;SDS011;6444;49.742;6.114;2023-09-19T06:58:28;8.57;;;3.50;;
12760;SDS011;6444;49.742;6.114;2023-09-19T07:00:55;9.90;;;3.50;;
12760;SDS011;6444;49.742;6.114;2023-09-19T07:03:22;8.45;;;3.35;;
12760;SDS011;6444;49.742;6.114;2023-09-19T07:05:48;8.98;;;3.80;;
12760;SDS011;6444;49.742;6.114;2023-09-19T07:08:15;9.20;;;5.22;;
12760;SDS011;6444;49.742;6.114;2023-09-19T07:10:42;9.38;;;3.20;;
12760;SDS011;6444;49.742;6.114;2023-09-19T07:13:15;10.20;;;3.22;;
12760;SDS011;6444;49.742;6.114;2023-09-19T07:15:44;11.38;;;3.35;;
12760;SDS011;6444;49.742;6.114;2023-09-19T07:18:14;8.18;;;2.95;;
12760;SDS011;6444;49.742;6.114;2023-09-19T07:20:40;7.70;;;2.65;;
12760;SDS011;6444;49.742;6.114;2023-09-19T07:23:07;9.50;;;3.05;;
12760;SDS011;6444;49.742;6.114;2023-09-19T07:25:34;8.63;;;2.97;;
12760;SDS011;6444;49.742;6.114;2023-09-19T07:28:00;6.85;;;2.87;;
12760;SDS011;6444;49.742;6.114;2023-09-19T07:30:27;6.97;;;2.62;;
12760;SDS011;6444;49.742;6.114;2023-09-19T07:32:54;13.98;;;6.87;;
12760;SDS011;6444;49.742;6.114;2023-09-19T07:35:20;7.07;;;3.08;;
12760;SDS011;6444;49.742;6.114;2023-09-19T07:37:47;5.72;;;2.20;;
12760;SDS011;6444;49.742;6.114;2023-09-19T07:40:15;7.00;;;2.62;;
12760;SDS011;6444;49.742;6.114;2023-09-19T07:42:41;6.07;;;2.40;;
12760;SDS011;6444;49.742;6.114;2023-09-19T07:45:08;10.38;;;2.10;;
12760;SDS011;6444;49.742;6.114;2023-09-19T07:47:34;7.78;;;1.73;;
12760;SDS011;6444;49.742;6.114;2023-09-19T07:50:01;6.85;;;2.15;;
12760;SDS011;6444;49.742;6.114;2023-09-19T07:52:28;8.23;;;2.80;;
12760;SDS011;6444;49.742;6.114;2023-09-19T07:54:55;4.22;;;1.90;;
12760;SDS011;6444;49.742;6.114;2023-09-19T07:57:21;7.37;;;2.72;;
12760;SDS011;6444;49.742;6.114;2023-09-19T07:59:48;7.20;;;2.58;;
12760;SDS011;6444;49.742;6.114;2023-09-19T08:02:15;6.57;;;2.20;;
12760;SDS011;6444;49.742;6.114;2023-09-19T08:04:42;7.75;;;1.95;;
12760;SDS011;6444;49.742;6.114;2023-09-19T08:07:08;7.55;;;3.70;;
12760;SDS011;6444;49.742;6.114;2023-09-19T08:09:34;7.32;;;2.45;;
12760;SDS011;6444;49.742;6.114;2023-09-19T08:12:01;10.90;;;2.72;;
12760;SDS011;6444;49.742;6.114;2023-09-19T08:14:30;10.10;;;3.40;;
12760;SDS011;6444;49.742;6.114;2023-09-19T08:16:57;8.95;;;2.85;;
12760;SDS011;6444;49.742;6.114;2023-09-19T08:19:26;9.40;;;2.47;;
12760;SDS011;6444;49.742;6.114;2023-09-19T08:21:55;8.30;;;2.47;;
12760;SDS011;6444;49.742;6.114;2023-09-19T08:24:19;8.77;;;2.70;;
12760;SDS011;6444;49.742;6.114;2023-09-19T08:26:46;9.30;;;2.08;;
12760;SDS011;6444;49.742;6.114;2023-09-19T08:29:14;7.97;;;2.30;;
12760;SDS011;6444;49.742;6.114;2023-09-19T08:31:40;8.05;;;2.50;;
12760;SDS011;6444;49.742;6.114;2023-09-19T08:34:07;6.87;;;2.40;;
12760;SDS011;6444;49.742;6.114;2023-09-19T08:36:33;6.32;;;2.30;;
12760;SDS011;6444;49.742;6.114;2023-09-19T08:39:00;6.15;;;2.22;;
12760;SDS011;6444;49.742;6.114;2023-09-19T08:41:27;8.73;;;2.40;;
12760;SDS011;6444;49.742;6.114;2023-09-19T08:43:53;7.37;;;2.10;;
12760;SDS011;6444;49.742;6.114;2023-09-19T08:46:21;9.00;;;2.53;;
12760;SDS011;6444;49.742;6.114;2023-09-19T08:49:13;6.35;;;2.22;;
12760;SDS011;6444;49.742;6.114;2023-09-19T08:51:27;7.68;;;2.30;;
12760;SDS011;6444;49.742;6.114;2023-09-19T08:56:30;5.32;;;1.67;;
12760;SDS011;6444;49.742;6.114;2023-09-19T08:59:00;7.87;;;2.00;;
12760;SDS011;6444;49.742;6.114;2023-09-19T09:01:29;8.68;;;2.35;;
12760;SDS011;6444;49.742;6.114;2023-09-19T09:03:55;5.93;;;1.77;;
12760;SDS011;6444;49.742;6.114;2023-09-19T09:06:22;5.90;;;2.00;;
12760;SDS011;6444;49.742;6.114;2023-09-19T09:08:51;7.28;;;2.03;;
12760;SDS011;6444;49.742;6.114;2023-09-19T09:11:18;7.53;;;2.00;;
12760;SDS011;6444;49.742;6.114;2023-09-19T09:13:45;9.00;;;2.30;;
12760;SDS011;6444;49.742;6.114;2023-09-19T09:16:11;7.90;;;2.17;;
12760;SDS011;6444;49.742;6.114;2023-09-19T09:18:38;8.15;;;2.33;;
12760;SDS011;6444;49.742;6.114;2023-09-19T09:21:04;5.50;;;1.70;;
12760;SDS011;6444;49.742;6.114;2023-09-19T09:23:31;5.83;;;2.47;;
12760;SDS011;6444;49.742;6.114;2023-09-19T09:25:59;6.55;;;2.90;;
12760;SDS011;6444;49.742;6.114;2023-09-19T09:28:26;7.15;;;1.98;;
12760;SDS011;6444;49.742;6.114;2023-09-19T09:30:52;4.85;;;2.00;;
12760;SDS011;6444;49.742;6.114;2023-09-19T09:33:18;7.15;;;1.42;;
12760;SDS011;6444;49.742;6.114;2023-09-19T09:35:52;5.47;;;1.75;;
12760;SDS011;6444;49.742;6.114;2023-09-19T09:38:24;5.90;;;1.75;;
12760;SDS011;6444;49.742;6.114;2023-09-19T09:40:56;4.65;;;1.62;;
12760;SDS011;6444;49.742;6.114;2023-09-19T09:43:38;7.70;;;1.80;;
12760;SDS011;6444;49.742;6.114;2023-09-19T09:46:14;5.07;;;1.60;;
12760;SDS011;6444;49.742;6.114;2023-09-19T09:51:40;5.90;;;1.77;;
12760;SDS011;6444;49.742;6.114;2023-09-19T09:54:13;6.70;;;1.60;;
12760;SDS011;6444;49.742;6.114;2023-09-19T09:57:01;6.53;;;1.98;;
12760;SDS011;6444;49.742;6.114;2023-09-19T09:59:18;5.25;;;1.80;;
12760;SDS011;6444;49.742;6.114;2023-09-19T10:01:48;10.95;;;5.65;;
12760;SDS011;6444;49.742;6.114;2023-09-19T10:04:26;5.45;;;2.05;;
12760;SDS011;6444;49.742;6.114;2023-09-19T10:06:48;3.10;;;1.45;;
12760;SDS011;6444;49.742;6.114;2023-09-19T10:09:14;5.80;;;2.05;;
12760;SDS011;6444;49.742;6.114;2023-09-19T10:11:42;5.90;;;1.55;;
12760;SDS011;6444;49.742;6.114;2023-09-19T10:14:07;4.28;;;1.50;;
12760;SDS011;6444;49.742;6.114;2023-09-19T10:16:40;5.30;;;1.62;;
12760;SDS011;6444;49.742;6.114;2023-09-19T10:19:07;6.22;;;1.27;;
12760;SDS011;6444;49.742;6.114;2023-09-19T10:21:37;5.43;;;1.55;;
12760;SDS011;6444;49.742;6.114;2023-09-19T10:24:03;5.45;;;1.35;;
12760;SDS011;6444;49.742;6.114;2023-09-19T10:26:30;4.40;;;1.27;;
12760;SDS011;6444;49.742;6.114;2023-09-19T10:28:57;5.70;;;1.60;;
12760;SDS011;6444;49.742;6.114;2023-09-19T10:31:23;4.70;;;2.15;;
12760;SDS011;6444;49.742;6.114;2023-09-19T10:33:50;3.53;;;2.03;;
12760;SDS011;6444;49.742;6.114;2023-09-19T10:36:16;6.37;;;1.80;;
12760;SDS011;6444;49.742;6.114;2023-09-19T10:38:43;5.03;;;1.70;;
12760;SDS011;6444;49.742;6.114;2023-09-19T10:41:10;4.43;;;1.25;;
12760;SDS011;6444;49.742;6.114;2023-09-19T10:43:36;5.65;;;2.33;;
12760;SDS011;6444;49.742;6.114;2023-09-19T10:46:06;6.15;;;1.48;;
12760;SDS011;6444;49.742;6.114;2023-09-19T10:48:30;5.03;;;1.30;;
12760;SDS011;6444;49.742;6.114;2023-09-19T10:53:55;6.35;;;1.55;;
12760;SDS011;6444;49.742;6.114;2023-09-19T10:56:24;4.18;;;1.77;;
12760;SDS011;6444;49.742;6.114;2023-09-19T10:58:50;4.35;;;1.40;;
12760;SDS011;6444;49.742;6.114;2023-09-19T11:01:18;4.95;;;1.75;;
12760;SDS011;6444;49.742;6.114;2023-09-19T11:03:44;3.45;;;1.35;;
12760;SDS011;6444;49.742;6.114;2023-09-19T11:06:15;3.75;;;1.40;;
12760;SDS011;6444;49.742;6.114;2023-09-19T11:08:53;3.87;;;1.12;;
12760;SDS011;6444;49.742;6.114;2023-09-19T11:30:36;4.15;;;1.58;;
12760;SDS011;6444;49.742;6.114;2023-09-19T11:33:17;5.05;;;1.75;;
12760;SDS011;6444;49.742;6.114;2023-09-19T11:36:05;3.35;;;1.30;;
12760;SDS011;6444;49.742;6.114;2023-09-19T11:46:27;5.37;;;1.73;;
12760;SDS011;6444;49.742;6.114;2023-09-19T11:48:54;5.65;;;1.42;;
12760;SDS011;6444;49.742;6.114;2023-09-19T11:51:22;4.35;;;1.85;;
12760;SDS011;6444;49.742;6.114;2023-09-19T11:53:50;4.60;;;2.08;;
12760;SDS011;6444;49.742;6.114;2023-09-19T11:56:17;5.68;;;1.75;;
12760;SDS011;6444;49.742;6.114;2023-09-19T11:58:43;5.15;;;1.48;;
12760;SDS011;6444;49.742;6.114;2023-09-19T12:01:12;3.90;;;1.75;;
12760;SDS011;6444;49.742;6.114;2023-09-19T12:03:36;5.60;;;2.03;;
12760;SDS011;6444;49.742;6.114;2023-09-19T12:06:10;7.20;;;1.73;;
12760;SDS011;6444;49.742;6.114;2023-09-19T12:08:30;4.97;;;1.70;;
12760;SDS011;6444;49.742;6.114;2023-09-19T12:10:57;3.70;;;1.27;;
12760;SDS011;6444;49.742;6.114;2023-09-19T12:13:24;3.00;;;1.30;;
12760;SDS011;6444;49.742;6.114;2023-09-19T12:15:51;3.17;;;1.23;;
12760;SDS011;6444;49.742;6.114;2023-09-19T12:18:27;2.83;;;1.15;;
12760;SDS011;6444;49.742;6.114;2023-09-19T12:20:53;2.55;;;1.27;;
12760;SDS011;6444;49.742;6.114;2023-09-19T12:23:20;4.15;;;1.37;;
12760;SDS011;6444;49.742;6.114;2023-09-19T12:25:47;3.12;;;1.30;;
12760;SDS011;6444;49.742;6.114;2023-09-19T12:28:14;3.62;;;1.10;;
12760;SDS011;6444;49.742;6.114;2023-09-19T12:30:40;2.55;;;1.40;;
12760;SDS011;6444;49.742;6.114;2023-09-19T12:33:19;3.53;;;1.30;;
12760;SDS011;6444;49.742;6.114;2023-09-19T12:35:45;2.47;;;1.20;;
12760;SDS011;6444;49.742;6.114;2023-09-19T12:38:34;3.12;;;1.30;;
12760;SDS011;6444;49.742;6.114;2023-09-19T12:40:57;6.57;;;1.33;;
12760;SDS011;6444;49.742;6.114;2023-09-19T12:43:23;2.60;;;1.00;;
12760;SDS011;6444;49.742;6.114;2023-09-19T12:45:50;4.72;;;1.33;;
12760;SDS011;6444;49.742;6.114;2023-09-19T12:48:20;4.63;;;1.73;;
12760;SDS011;6444;49.742;6.114;2023-09-19T12:50:59;5.60;;;1.77;;
12760;SDS011;6444;49.742;6.114;2023-09-19T12:53:57;4.15;;;1.73;;
12760;SDS011;6444;49.742;6.114;2023-09-19T12:56:06;4.95;;;1.42;;
12760;SDS011;6444;49.742;6.114;2023-09-19T12:58:33;5.53;;;1.30;;
12760;SDS011;6444;49.742;6.114;2023-09-19T13:03:29;3.92;;;1.50;;
12760;SDS011;6444;49.742;6.114;2023-09-19T13:05:56;4.28;;;1.15;;
12760;SDS011;6444;49.742;6.114;2023-09-19T13:08:25;2.83;;;1.37;;
12760;SDS011;6444;49.742;6.114;2023-09-19T13:11:08;4.20;;;1.37;;
12760;SDS011;6444;49.742;6.114;2023-09-19T13:13:37;2.83;;;1.20;;
12760;SDS011;6444;49.742;6.114;2023-09-19T13:16:03;2.72;;;1.15;;
12760;SDS011;6444;49.742;6.114;2023-09-19T13:18:30;6.40;;;1.70;;
12760;SDS011;6444;49.742;6.114;2023-09-19T13:21:05;3.20;;;1.20;;
12760;SDS011;6444;49.742;6.114;2023-09-19T13:23:34;3.47;;;1.17;;
12760;SDS011;6444;49.742;6.114;2023-09-19T13:26:01;3.35;;;1.20;;
12760;SDS011;6444;49.742;6.114;2023-09-19T13:28:28;3.85;;;1.37;;
12760;SDS011;6444;49.742;6.114;2023-09-19T13:30:54;2.83;;;1.30;;
12760;SDS011;6444;49.742;6.114;2023-09-19T13:33:22;4.15;;;1.20;;
12760;SDS011;6444;49.742;6.114;2023-09-19T13:35:48;3.47;;;1.40;;
12760;SDS011;6444;49.742;6.114;2023-09-19T13:38:15;3.45;;;1.10;;
12760;SDS011;6444;49.742;6.114;2023-09-19T13:40:42;1.33;;;0.70;;
12760;SDS011;6444;49.742;6.114;2023-09-19T13:43:08;1.80;;;1.23;;
12760;SDS011;6444;49.742;6.114;2023-09-19T13:45:35;4.28;;;1.08;;
12760;SDS011;6444;49.742;6.114;2023-09-19T13:48:02;2.65;;;0.90;;
12760;SDS011;6444;49.742;6.114;2023-09-19T13:50:29;5.53;;;1.12;;
12760;SDS011;6444;49.742;6.114;2023-09-19T13:52:56;3.08;;;1.10;;
12760;SDS011;6444;49.742;6.114;2023-09-19T13:55:22;5.37;;;1.40;;
12760;SDS011;6444;49.742;6.114;2023-09-19T13:57:49;3.80;;;1.62;;
12760;SDS011;6444;49.742;6.114;2023-09-19T14:00:16;4.87;;;1.60;;
12760;SDS011;6444;49.742;6.114;2023-09-19T14:02:42;2.65;;;1.37;;
12760;SDS011;6444;49.742;6.114;2023-09-19T14:05:09;3.50;;;0.90;;
12760;SDS011;6444;49.742;6.114;2023-09-19T14:07:35;3.83;;;1.48;;
12760;SDS011;6444;49.742;6.114;2023-09-19T14:10:02;3.50;;;1.30;;
12760;SDS011;6444;49.742;6.114;2023-09-19T14:12:29;4.80;;;1.50;;
12760;SDS011;6444;49.742;6.114;2023-09-19T14:14:55;2.75;;;1.08;;
12760;SDS011;6444;49.742;6.114;2023-09-19T14:17:22;6.15;;;1.23;;
12760;SDS011;6444;49.742;6.114;2023-09-19T14:19:49;4.68;;;1.40;;
12760;SDS011;6444;49.742;6.114;2023-09-19T14:22:15;2.60;;;1.30;;
12760;SDS011;6444;49.742;6.114;2023-09-19T14:24:43;3.72;;;1.20;;
12760;SDS011;6444;49.742;6.114;2023-09-19T14:27:09;3.03;;;1.30;;
12760;SDS011;6444;49.742;6.114;2023-09-19T14:29:36;3.10;;;1.10;;
12760;SDS011;6444;49.742;6.114;2023-09-19T14:32:03;2.53;;;1.52;;
12760;SDS011;6444;49.742;6.114;2023-09-19T14:34:29;2.70;;;1.40;;
12760;SDS011;6444;49.742;6.114;2023-09-19T14:36:56;3.92;;;1.40;;
12760;SDS011;6444;49.742;6.114;2023-09-19T14:39:23;3.60;;;1.62;;
12760;SDS011;6444;49.742;6.114;2023-09-19T14:41:49;5.53;;;1.48;;
12760;SDS011;6444;49.742;6.114;2023-09-19T14:44:16;3.85;;;2.25;;
12760;SDS011;6444;49.742;6.114;2023-09-19T14:46:43;2.95;;;1.90;;
12760;SDS011;6444;49.742;6.114;2023-09-19T14:49:10;5.85;;;1.40;;
12760;SDS011;6444;49.742;6.114;2023-09-19T14:51:37;3.75;;;1.20;;
12760;SDS011;6444;49.742;6.114;2023-09-19T14:54:06;2.37;;;1.00;;
12760;SDS011;6444;49.742;6.114;2023-09-19T14:56:33;3.22;;;1.35;;
12760;SDS011;6444;49.742;6.114;2023-09-19T14:58:59;6.15;;;1.55;;
12760;SDS011;6444;49.742;6.114;2023-09-19T15:01:26;2.70;;;1.00;;
12760;SDS011;6444;49.742;6.114;2023-09-19T15:03:53;4.78;;;1.67;;
12760;SDS011;6444;49.742;6.114;2023-09-19T15:06:19;3.30;;;1.33;;
12760;SDS011;6444;49.742;6.114;2023-09-19T15:08:46;2.42;;;1.20;;
12760;SDS011;6444;49.742;6.114;2023-09-19T15:11:19;2.47;;;1.15;;
12760;SDS011;6444;49.742;6.114;2023-09-19T15:13:47;1.65;;;1.37;;
12760;SDS011;6444;49.742;6.114;2023-09-19T15:16:13;3.10;;;1.25;;
12760;SDS011;6444;49.742;6.114;2023-09-19T15:18:40;2.92;;;1.40;;
12760;SDS011;6444;49.742;6.114;2023-09-19T15:21:06;3.33;;;1.10;;
12760;SDS011;6444;49.742;6.114;2023-09-19T15:23:33;2.50;;;0.82;;
12760;SDS011;6444;49.742;6.114;2023-09-19T15:26:03;2.03;;;1.25;;
12760;SDS011;6444;49.742;6.114;2023-09-19T15:28:27;2.53;;;1.40;;
12760;SDS011;6444;49.742;6.114;2023-09-19T15:31:03;1.73;;;1.12;;
12760;SDS011;6444;49.742;6.114;2023-09-19T15:33:29;1.77;;;1.10;;
12760;SDS011;6444;49.742;6.114;2023-09-19T15:38:32;3.90;;;1.12;;
12760;SDS011;6444;49.742;6.114;2023-09-19T15:40:58;3.08;;;1.10;;
12760;SDS011;6444;49.742;6.114;2023-09-19T15:43:24;3.42;;;1.20;;
12760;SDS011;6444;49.742;6.114;2023-09-19T15:45:52;2.12;;;1.00;;
12760;SDS011;6444;49.742;6.114;2023-09-19T15:48:18;1.67;;;1.10;;
12760;SDS011;6444;49.742;6.114;2023-09-19T15:50:45;2.33;;;1.30;;
12760;SDS011;6444;49.742;6.114;2023-09-19T15:53:12;5.93;;;1.40;;
12760;SDS011;6444;49.742;6.114;2023-09-19T15:55:39;4.00;;;1.20;;
12760;SDS011;6444;49.742;6.114;2023-09-19T15:58:05;2.40;;;1.20;;
12760;SDS011;6444;49.742;6.114;2023-09-19T16:00:34;2.15;;;1.20;;
12760;SDS011;6444;49.742;6.114;2023-09-19T16:03:01;2.42;;;1.02;;
12760;SDS011;6444;49.742;6.114;2023-09-19T16:05:28;2.55;;;1.20;;